Time;durP1;ratioP1;P1;durP2;ratioP2;P2;SDS_P1;SDS_P2;PMS_P1;PMS_P2;Temp;Humidity;BMP_temperature;BMP_pressure;BME280_temperature;BME280_humidity;BME280_pressure;Samples;Min_cycle;Max_cycle;Signal;HPM_P1;HPM_P2
2023/01/07 00:02:20;;;;;;;7.18;4.90;;;;;;;6.61;100.00;100880.75;5226523;28;20037;-77
2023/01/07 00:04:50;;;;;;;7.10;5.38;;;;;;;6.64;100.00;100889.38;5226804;28;20025;-77
2023/01/07 00:07:20;;;;;;;6.85;5.03;;;;;;;6.83;100.00;100893.41;5231559;28;20032;-77
2023/01/07 00:09:50;;;;;;;7.05;4.72;;;;;;;6.75;100.00;100891.78;5230058;28;20025;-77
2023/01/07 00:12:21;;;;;;;7.15;4.70;;;;;;;6.70;100.00;100897.06;5222424;28;20112;-77
2023/01/07 00:14:51;;;;;;;10.18;5.40;;;;;;;6.86;100.00;100887.28;5226417;28;20103;-77
2023/01/07 00:17:21;;;;;;;9.48;4.78;;;;;;;6.94;100.00;100880.25;5231215;28;20394;-77
2023/01/07 00:19:52;;;;;;;7.05;4.63;;;;;;;6.92;100.00;100880.25;5232912;28;20402;-78
2023/01/07 00:22:22;;;;;;;6.88;4.55;;;;;;;6.92;100.00;100872.44;5225177;28;20043;-77
2023/01/07 00:24:52;;;;;;;7.57;4.75;;;;;;;6.89;100.00;100882.91;5225718;28;20081;-77
2023/01/07 00:27:24;;;;;;;6.75;4.57;;;;;;;6.90;100.00;100883.78;5196829;28;20403;-77
2023/01/07 00:29:54;;;;;;;6.43;4.35;;;;;;;7.09;100.00;100874.78;5233201;28;20017;-78
2023/01/07 00:32:47;;;;;;;9.73;4.45;;;;;;;7.05;100.00;100867.91;5226878;28;20154;-77
2023/01/07 00:35:24;;;;;;;7.65;4.55;;;;;;;7.09;100.00;100882.59;5229288;28;20031;-77
2023/01/07 00:37:54;;;;;;;8.23;4.55;;;;;;;7.04;100.00;100877.47;5213800;28;20021;-78
2023/01/07 00:40:24;;;;;;;7.20;4.40;;;;;;;7.13;100.00;100871.25;5229441;28;20028;-77
2023/01/07 00:43:00;;;;;;;5.78;4.03;;;;;;;7.32;100.00;100860.53;5233089;28;20089;-77
2023/01/07 00:45:32;;;;;;;;;;;;;;;7.34;100.00;100859.59;5232386;28;20112;-78
2023/01/07 00:48:03;;;;;;;6.10;3.95;;;;;;;7.34;100.00;100864.78;5232366;28;20482;-77
2023/01/07 00:50:35;;;;;;;5.60;3.90;;;;;;;7.40;100.00;100856.03;5227581;28;20064;-78
2023/01/07 00:53:06;;;;;;;8.93;4.82;;;;;;;7.28;100.00;100859.72;5195422;28;20069;-77
2023/01/07 00:55:36;;;;;;;8.68;5.10;;;;;;;7.32;100.00;100853.56;5213436;28;20065;-77
2023/01/07 00:58:08;;;;;;;7.22;4.20;;;;;;;7.32;100.00;100855.31;5229488;28;20588;-77
2023/01/07 01:00:38;;;;;;;8.65;5.10;;;;;;;7.37;100.00;100864.72;5234145;28;20028;-78
2023/01/07 01:03:10;;;;;;;8.15;4.97;;;;;;;7.33;100.00;100859.63;5227476;28;20033;-78
2023/01/07 01:05:41;;;;;;;7.75;4.65;;;;;;;7.28;100.00;100854.50;5232893;28;20044;-78
2023/01/07 01:08:11;;;;;;;8.45;4.18;;;;;;;7.29;100.00;100864.03;5225283;28;20029;-78
2023/01/07 01:10:42;;;;;;;5.97;4.32;;;;;;;7.31;100.00;100864.84;5219699;28;20017;-77
2023/01/07 01:13:15;;;;;;;6.40;4.20;;;;;;;7.43;100.00;100861.16;5231154;28;20509;-76
2023/01/07 01:15:47;;;;;;;5.72;4.20;;;;;;;7.36;100.00;100859.56;5226463;28;20048;-77
2023/01/07 01:18:17;;;;;;;5.05;3.28;;;;;;;7.42;100.00;100852.53;5223585;28;20028;-77
2023/01/07 01:20:48;;;;;;;3.10;1.90;;;;;;;7.73;100.00;100850.19;5227522;28;20506;-78
2023/01/07 01:23:18;;;;;;;6.00;1.42;;;;;;;7.94;100.00;100855.81;5227430;28;20120;-77
2023/01/07 01:25:48;;;;;;;2.10;1.30;;;;;;;8.31;100.00;100855.91;5207557;28;20025;-78
2023/01/07 01:28:18;;;;;;;2.65;1.50;;;;;;;8.40;100.00;100856.56;5228655;28;20037;-77
2023/01/07 01:30:54;;;;;;;2.08;1.60;;;;;;;8.52;100.00;100856.31;5228576;28;20175;-78
2023/01/07 01:33:24;;;;;;;;;;;;;;;8.44;100.00;100859.97;5227003;28;20106;-77
2023/01/07 01:35:55;;;;;;;2.10;1.30;;;;;;;8.54;100.00;100854.50;5226926;28;20017;-78
2023/01/07 01:38:25;;;;;;;4.00;1.92;;;;;;;8.65;100.00;100851.66;5233621;28;20028;-78
2023/01/07 01:40:55;;;;;;;4.38;1.50;;;;;;;8.70;100.00;100853.25;5234004;28;20054;-78
2023/01/07 01:43:38;;;;;;;2.30;1.40;;;;;;;8.77;100.00;100839.22;5210958;28;20463;-78
2023/01/07 01:46:42;;;;;;;3.10;1.45;;;;;;;8.86;100.00;100835.53;5232228;28;20028;-78
2023/01/07 01:49:24;;;;;;;4.65;1.60;;;;;;;8.99;100.00;100847.34;5218217;28;20424;-78
2023/01/07 01:52:14;;;;;;;2.40;1.50;;;;;;;9.03;100.00;100842.03;5227371;28;20020;-78
2023/01/07 01:54:50;;;;;;;1.70;1.30;;;;;;;9.06;100.00;100849.75;5230001;28;20021;-78
2023/01/07 01:57:22;;;;;;;3.50;1.50;;;;;;;9.10;100.00;100835.75;5214287;28;20483;-78
2023/01/07 01:59:52;;;;;;;2.70;1.40;;;;;;;9.12;100.00;100839.19;5231045;28;20060;-78
2023/01/07 02:02:31;;;;;;;3.55;1.38;;;;;;;9.19;100.00;100836.41;5225924;28;20455;-79
2023/01/07 02:05:03;;;;;;;4.75;1.70;;;;;;;9.23;100.00;100830.19;5224616;28;20119;-78
2023/01/07 02:07:33;;;;;;;2.65;1.50;;;;;;;9.14;100.00;100834.81;5236102;28;20048;-78
2023/01/07 02:10:14;;;;;;;2.20;1.42;;;;;;;9.20;100.00;100830.28;5216134;28;20544;-78
2023/01/07 02:13:21;;;;;;;2.45;1.50;;;;;;;9.12;100.00;100823.56;5234314;28;20021;-78
2023/01/07 02:16:07;;;;;;;2.45;1.42;;;;;;;9.15;100.00;100819.09;5231986;28;20551;-78
2023/01/07 02:18:44;;;;;;;2.28;1.40;;;;;;;9.27;100.00;100823.13;5218741;28;20029;-79
2023/01/07 02:21:20;;;;;;;1.83;1.50;;;;;;;9.21;100.00;100831.13;5231246;28;20021;-78
2023/01/07 02:24:05;;;;;;;2.72;1.80;;;;;;;9.12;100.00;100839.19;5226583;28;20497;-79
2023/01/07 02:26:59;;;;;;;2.13;1.52;;;;;;;9.05;100.00;100828.97;5236615;28;20043;-78
2023/01/07 02:29:44;;;;;;;2.22;1.42;;;;;;;8.99;100.00;100823.88;5233916;28;20029;-78
2023/01/07 02:32:17;;;;;;;4.00;1.80;;;;;;;8.94;100.00;100829.25;5223514;28;20446;-79
2023/01/07 02:35:33;;;;;;;1.83;1.30;;;;;;;8.83;100.00;100815.59;5229515;28;20436;-78
2023/01/07 02:38:23;;;;;;;1.95;1.40;;;;;;;8.76;100.00;100818.41;5211846;28;20048;-77
2023/01/07 02:41:28;;;;;;;3.05;1.65;;;;;;;8.84;100.00;100812.09;5233520;28;20028;-79
2023/01/07 02:44:17;;;;;;;3.60;1.50;;;;;;;8.62;100.00;100815.25;5227832;28;20060;-79
2023/01/07 02:46:59;;;;;;;2.78;1.50;;;;;;;8.65;100.00;100816.06;5211238;28;20044;-78
2023/01/07 02:49:29;;;;;;;1.88;1.27;;;;;;;8.60;100.00;100814.44;5233891;28;20036;-78
2023/01/07 02:52:20;;;;;;;1.48;1.20;;;;;;;8.64;100.00;100813.47;5229562;28;20529;-79
2023/01/07 02:55:02;;;;;;;2.25;1.20;;;;;;;8.47;100.00;100811.28;5231192;28;20031;-78
2023/01/07 02:57:59;;;;;;;3.05;1.50;;;;;;;8.37;100.00;100814.97;5230251;28;20037;-78
2023/01/07 03:00:47;;;;;;;2.72;1.50;;;;;;;8.31;100.00;100815.13;5223531;28;20029;-78
2023/01/07 03:03:20;;;;;;;2.97;1.63;;;;;;;8.24;100.00;100813.53;5221895;28;20048;-78
2023/01/07 03:06:04;;;;;;;2.78;1.42;;;;;;;8.23;100.00;100817.03;5229383;28;20032;-78
2023/01/07 03:08:57;;;;;;;2.78;1.50;;;;;;;8.19;100.00;100812.78;5231479;28;20040;-78
2023/01/07 03:11:41;;;;;;;3.00;1.70;;;;;;;8.24;100.00;100818.75;5227232;28;20025;-79
2023/01/07 03:14:22;;;;;;;2.30;1.50;;;;;;;8.24;100.00;100812.69;5230967;28;20043;-78
2023/01/07 03:16:57;;;;;;;2.20;1.52;;;;;;;8.24;100.00;100807.50;5227168;28;20028;-78
2023/01/07 03:19:31;;;;;;;2.38;1.70;;;;;;;8.23;100.00;100797.97;5226505;28;20448;-78
2023/01/07 03:22:04;;;;;;;2.13;1.45;;;;;;;8.28;100.00;100804.78;5226794;28;20067;-78
2023/01/07 03:24:34;;;;;;;2.13;1.60;;;;;;;8.35;100.00;100800.28;5230760;28;20059;-78
2023/01/07 03:27:08;;;;;;;2.33;1.40;;;;;;;8.43;100.00;100812.25;5229503;28;20167;-78
2023/01/07 03:29:38;;;;;;;1.80;1.40;;;;;;;8.43;100.00;100804.44;5232899;28;20048;-78
2023/01/07 03:32:14;;;;;;;2.88;1.65;;;;;;;8.38;100.00;100801.06;5222378;28;20098;-78
2023/01/07 03:34:45;;;;;;;1.92;1.33;;;;;;;8.40;100.00;100796.66;5220973;28;20025;-77
2023/01/07 03:37:19;;;;;;;2.33;1.60;;;;;;;8.50;100.00;100799.91;5229826;28;20028;-77
2023/01/07 03:39:50;;;;;;;2.15;1.50;;;;;;;8.47;100.00;100800.88;5212736;28;20417;-78
2023/01/07 03:42:39;;;;;;;2.03;1.60;;;;;;;8.54;100.00;100792.00;5212545;28;20032;-77
2023/01/07 03:45:09;;;;;;;2.88;1.90;;;;;;;8.57;100.00;100791.91;5233063;28;20060;-78
2023/01/07 03:47:43;;;;;;;3.25;1.60;;;;;;;8.65;100.00;100787.41;5230472;28;20515;-78
2023/01/07 03:50:15;;;;;;;2.92;1.40;;;;;;;8.71;100.00;100784.63;5229892;28;20025;-78
2023/01/07 03:52:47;;;;;;;3.15;1.73;;;;;;;8.79;100.00;100777.50;5219289;28;20402;-79
2023/01/07 03:55:17;;;;;;;2.00;1.50;;;;;;;8.75;100.00;100785.41;5229381;28;20041;-79
2023/01/07 03:57:48;;;;;;;2.33;1.60;;;;;;;8.75;100.00;100773.22;5223278;28;20029;-78
2023/01/07 04:00:18;;;;;;;2.67;1.58;;;;;;;8.72;100.00;100775.09;5225893;28;20041;-78
2023/01/07 04:02:48;;;;;;;4.68;1.70;;;;;;;8.87;100.00;100762.50;5231557;28;20161;-78
2023/01/07 04:05:18;;;;;;;4.00;1.55;;;;;;;8.78;100.00;100769.69;5222435;28;20036;-79
2023/01/07 04:07:49;;;;;;;2.20;1.60;;;;;;;8.73;100.00;100761.16;5226935;28;20094;-78
2023/01/07 04:10:19;;;;;;;2.95;1.58;;;;;;;8.75;100.00;100755.00;5227834;28;20354;-79
2023/01/07 04:12:49;;;;;;;3.38;1.80;;;;;;;8.71;100.00;100753.38;5236274;28;20402;-79
2023/01/07 04:15:20;;;;;;;3.55;2.20;;;;;;;8.78;100.00;100749.72;5232239;28;20029;-78
2023/01/07 04:17:50;;;;;;;3.97;2.10;;;;;;;8.82;100.00;100742.66;5230719;28;20039;-78
2023/01/07 04:20:20;;;;;;;1.45;1.17;;;;;;;8.73;100.00;100745.53;5232483;28;20327;-78
2023/01/07 04:22:51;;;;;;;1.98;1.30;;;;;;;8.65;100.00;100748.31;5230450;28;20029;-78
2023/01/07 04:25:21;;;;;;;3.50;1.50;;;;;;;8.70;100.00;100743.84;5212612;28;20027;-78
2023/01/07 04:27:51;;;;;;;2.00;1.25;;;;;;;8.47;100.00;100742.69;5234782;28;20059;-78
2023/01/07 04:30:21;;;;;;;2.13;1.20;;;;;;;8.39;100.00;100739.44;5232628;28;20063;-78
2023/01/07 04:32:52;;;;;;;3.00;1.23;;;;;;;8.29;100.00;100745.75;5234265;28;20055;-78
2023/01/07 04:35:22;;;;;;;1.98;1.20;;;;;;;8.12;100.00;100735.69;5231370;28;20031;-78
2023/01/07 04:37:52;;;;;;;3.53;1.20;;;;;;;8.03;100.00;100730.69;5208825;28;20083;-78
2023/01/07 04:40:22;;;;;;;2.33;1.20;;;;;;;8.01;100.00;100737.69;5230696;28;20548;-78
2023/01/07 04:42:53;;;;;;;1.58;1.20;;;;;;;8.03;100.00;100746.31;5235491;28;20060;-78
2023/01/07 04:45:23;;;;;;;1.60;1.10;;;;;;;7.97;100.00;100741.25;5233565;28;20327;-79
2023/01/07 04:47:55;;;;;;;2.63;1.40;;;;;;;7.89;100.00;100745.75;5235754;28;20024;-78
2023/01/07 04:50:25;;;;;;;2.30;1.60;;;;;;;7.95;100.00;100742.16;5232615;28;20040;-78
2023/01/07 04:52:55;;;;;;;2.95;1.65;;;;;;;8.06;100.00;100730.63;5223769;28;20445;-78
2023/01/07 04:55:26;;;;;;;2.72;1.67;;;;;;;8.06;100.00;100727.19;5233413;28;20086;-78
2023/01/07 04:57:56;;;;;;;2.20;1.42;;;;;;;8.14;100.00;100718.31;5215439;28;20056;-78
2023/01/07 05:00:26;;;;;;;3.08;1.67;;;;;;;8.04;100.00;100723.75;5226298;28;20071;-78
2023/01/07 05:02:56;;;;;;;3.65;1.77;;;;;;;8.11;100.00;100715.78;5231461;28;20025;-78
2023/01/07 05:05:27;;;;;;;4.60;1.98;;;;;;;7.93;100.00;100711.00;5234254;28;20033;-78
2023/01/07 05:07:57;;;;;;;2.47;1.80;;;;;;;7.93;100.00;100711.00;5230505;28;20528;-78
2023/01/07 05:10:27;;;;;;;5.05;2.30;;;;;;;7.97;100.00;100719.56;5229892;28;20034;-78
2023/01/07 05:12:58;;;;;;;5.22;2.25;;;;;;;8.03;100.00;100724.66;5234791;28;20032;-78
2023/01/07 05:15:28;;;;;;;3.50;2.45;;;;;;;8.12;100.00;100725.28;5234886;28;20085;-78
2023/01/07 05:17:58;;;;;;;6.43;3.00;;;;;;;8.31;100.00;100721.38;5212737;28;20064;-78
2023/01/07 05:20:28;;;;;;;4.40;3.10;;;;;;;8.36;100.00;100722.13;5216124;28;20079;-78
2023/01/07 05:22:59;;;;;;;4.93;2.97;;;;;;;8.36;100.00;100711.72;5213293;28;20478;-78
2023/01/07 05:25:30;;;;;;;5.28;3.15;;;;;;;8.33;100.00;100717.00;5234386;28;20201;-78
2023/01/07 05:28:01;;;;;;;4.75;2.90;;;;;;;8.24;100.00;100714.59;5230744;28;20036;-79
2023/01/07 05:30:31;;;;;;;5.13;3.20;;;;;;;8.31;100.00;100705.78;5216533;28;20025;-78
2023/01/07 05:33:01;;;;;;;4.20;2.83;;;;;;;8.32;100.00;100712.69;5234188;28;20437;-78
2023/01/07 05:35:33;;;;;;;4.13;2.63;;;;;;;8.32;100.00;100707.47;5214309;28;20056;-78
2023/01/07 05:38:03;;;;;;;4.30;2.90;;;;;;;8.40;100.00;100710.75;5226437;28;20033;-78
2023/01/07 05:40:33;;;;;;;5.50;3.13;;;;;;;8.42;100.00;100716.75;5227923;28;20046;-78
2023/01/07 05:43:04;;;;;;;6.93;3.47;;;;;;;8.58;100.00;100718.09;5235154;28;20202;-78
2023/01/07 05:45:34;;;;;;;4.97;3.25;;;;;;;8.55;100.00;100723.38;5233266;28;20028;-79
2023/01/07 05:48:04;;;;;;;9.07;4.60;;;;;;;8.62;100.00;100718.88;5231420;28;20387;-79
2023/01/07 05:50:35;;;;;;;5.63;3.50;;;;;;;8.74;100.00;100726.38;5200971;28;20044;-79
2023/01/07 05:53:05;;;;;;;4.28;2.97;;;;;;;8.82;100.00;100722.69;5229542;28;20486;-79
2023/01/07 05:55:37;;;;;;;4.40;3.10;;;;;;;8.90;100.00;100719.88;5217635;28;20041;-79
2023/01/07 05:58:08;;;;;;;4.22;3.00;;;;;;;8.95;100.00;100716.25;5235283;28;20054;-78
2023/01/07 06:00:38;;;;;;;3.90;2.70;;;;;;;8.92;100.00;100720.69;5225734;28;20032;-79
2023/01/07 06:03:09;;;;;;;4.88;2.35;;;;;;;9.04;100.00;100717.78;5232979;28;20470;-79
2023/01/07 06:05:39;;;;;;;4.20;2.22;;;;;;;8.95;100.00;100718.88;5237453;28;20386;-79
2023/01/07 06:08:09;;;;;;;5.47;2.60;;;;;;;8.77;100.00;100719.34;5210548;28;20077;-79
2023/01/07 06:10:40;;;;;;;2.72;2.03;;;;;;;8.73;100.00;100715.09;5229860;28;20020;-78
2023/01/07 06:13:10;;;;;;;3.00;1.83;;;;;;;8.56;100.00;100732.06;5235145;28;20120;-77
2023/01/07 06:15:41;;;;;;;3.90;2.08;;;;;;;8.56;100.00;100724.25;5218929;28;20047;-79
2023/01/07 06:18:11;;;;;;;3.70;2.08;;;;;;;8.64;100.00;100724.91;5232582;28;20048;-79
2023/01/07 06:20:41;;;;;;;3.65;2.47;;;;;;;8.54;100.00;100724.28;5232609;28;20017;-78
2023/01/07 06:23:12;;;;;;;9.10;5.47;;;;;;;8.57;100.00;100724.19;5234118;28;20035;-78
2023/01/07 06:25:42;;;;;;;8.23;4.68;;;;;;;8.55;100.00;100726.00;5233176;28;20109;-79
2023/01/07 06:28:12;;;;;;;5.40;3.50;;;;;;;8.47;100.00;100725.34;5234137;28;20025;-79
2023/01/07 06:30:46;;;;;;;6.07;3.50;;;;;;;8.55;100.00;100725.16;5238023;28;20150;-79
2023/01/07 06:33:16;;;;;;;4.65;2.97;;;;;;;8.52;100.00;100720.03;5230357;28;20082;-78
2023/01/07 06:35:47;;;;;;;4.93;3.30;;;;;;;8.55;100.00;100715.56;5233745;28;20072;-79
2023/01/07 06:38:17;;;;;;;4.78;3.30;;;;;;;8.56;100.00;100712.06;5228211;28;20044;-78
2023/01/07 06:40:47;;;;;;;3.88;3.05;;;;;;;8.70;100.00;100707.38;5224784;28;20029;-78
2023/01/07 06:43:18;;;;;;;4.95;2.95;;;;;;;8.65;100.00;100717.06;5232703;28;20028;-78
2023/01/07 06:45:48;;;;;;;4.30;3.15;;;;;;;8.53;100.00;100713.91;5212766;28;20225;-76
2023/01/07 06:48:18;;;;;;;4.70;2.75;;;;;;;8.56;100.00;100706.84;5208067;28;20031;-78
2023/01/07 06:50:48;;;;;;;9.60;3.00;;;;;;;8.52;100.00;100700.03;5231576;28;20031;-78
2023/01/07 06:53:19;;;;;;;4.18;3.05;;;;;;;8.38;100.00;100712.53;5224079;28;20021;-78
2023/01/07 06:55:50;;;;;;;3.75;2.80;;;;;;;8.46;100.00;100710.59;5231566;28;20028;-78
2023/01/07 06:58:20;;;;;;;6.82;3.30;;;;;;;8.46;100.00;100715.81;5230930;28;20060;-78
2023/01/07 07:00:51;;;;;;;5.43;2.90;;;;;;;8.39;100.00;100718.59;5226109;28;20033;-78
2023/01/07 07:03:21;;;;;;;4.40;2.67;;;;;;;8.33;100.00;100717.00;5224062;28;20024;-78
2023/01/07 07:05:51;;;;;;;4.90;2.97;;;;;;;8.29;100.00;100715.38;5228373;28;20021;-77
2023/01/07 07:08:22;;;;;;;6.68;3.33;;;;;;;8.37;100.00;100708.22;5223000;28;20037;-78
2023/01/07 07:10:52;;;;;;;4.28;2.90;;;;;;;8.25;100.00;100712.88;5224380;28;20111;-78
2023/01/07 07:13:22;;;;;;;4.68;2.47;;;;;;;8.18;100.00;100713.91;5227372;28;20025;-78
2023/01/07 07:15:52;;;;;;;5.45;3.10;;;;;;;8.04;100.00;100716.78;5209318;28;20025;-78
2023/01/07 07:18:23;;;;;;;3.78;2.60;;;;;;;7.91;100.00;100714.50;5228814;28;20085;-78
2023/01/07 07:20:53;;;;;;;4.75;2.80;;;;;;;7.75;100.00;100718.34;5225591;28;20643;-78
2023/01/07 07:23:23;;;;;;;4.50;2.78;;;;;;;7.76;100.00;100709.66;5222198;28;20281;-77
2023/01/07 07:25:54;;;;;;;4.63;3.10;;;;;;;7.64;100.00;100715.09;5230149;28;20288;-78
2023/01/07 07:28:24;;;;;;;4.22;2.92;;;;;;;7.64;100.00;100717.69;5228731;28;20028;-78
2023/01/07 07:30:54;;;;;;;4.15;3.13;;;;;;;7.55;100.00;100718.75;5230287;28;20486;-78
2023/01/07 07:33:24;;;;;;;4.05;2.83;;;;;;;7.71;100.00;100717.53;5230239;28;20028;-77
2023/01/07 07:35:55;;;;;;;4.82;2.90;;;;;;;7.80;100.00;100719.09;5231704;28;20032;-79
2023/01/07 07:38:25;;;;;;;5.78;3.17;;;;;;;7.86;100.00;100722.41;5226366;28;20028;-79
2023/01/07 07:40:55;;;;;;;4.55;2.90;;;;;;;7.77;100.00;100720.03;5225351;28;20025;-78
2023/01/07 07:43:26;;;;;;;3.88;2.95;;;;;;;7.76;100.00;100720.06;5228049;28;20042;-78
2023/01/07 07:45:56;;;;;;;5.80;3.00;;;;;;;7.69;100.00;100726.28;5234463;28;20024;-78
2023/01/07 07:48:27;;;;;;;5.10;3.58;;;;;;;7.66;100.00;100727.19;5234569;28;20016;-79
2023/01/07 07:50:57;;;;;;;6.38;2.92;;;;;;;7.70;100.00;100728.00;5211225;28;20288;-78
2023/01/07 07:53:28;;;;;;;5.22;3.00;;;;;;;7.75;100.00;100729.63;5212509;28;20032;-78
2023/01/07 07:55:58;;;;;;;4.03;3.13;;;;;;;7.76;100.00;100720.91;5233937;28;20021;-78
2023/01/07 07:58:28;;;;;;;4.50;3.17;;;;;;;8.00;100.00;100722.09;5226463;28;20053;-78
2023/01/07 08:00:59;;;;;;;6.13;3.47;;;;;;;8.11;100.00;100714.91;5224454;28;20510;-79
2023/01/07 08:03:29;;;;;;;5.25;3.40;;;;;;;8.24;100.00;100719.81;5228865;28;20029;-79
2023/01/07 08:05:59;;;;;;;4.38;2.92;;;;;;;8.34;100.00;100716.09;5230117;28;20120;-79
2023/01/07 08:08:29;;;;;;;4.95;3.22;;;;;;;8.31;100.00;100716.19;5222366;28;20036;-78
2023/01/07 08:11:01;;;;;;;5.90;3.20;;;;;;;8.37;100.00;100715.19;5233030;28;20089;-79
2023/01/07 08:13:32;;;;;;;4.38;2.70;;;;;;;8.40;100.00;100721.16;5233810;28;20103;-78
2023/01/07 08:16:02;;;;;;;3.28;2.50;;;;;;;8.43;100.00;100708.09;5237285;28;20033;-78
2023/01/07 08:18:33;;;;;;;4.65;3.20;;;;;;;8.52;100.00;100707.84;5219437;28;20025;-79
2023/01/07 08:21:03;;;;;;;4.00;2.83;;;;;;;9.24;100.00;100709.34;5214778;28;20032;-79
2023/01/07 08:23:33;;;;;;;3.30;2.60;;;;;;;9.90;100.00;100703.91;5213100;28;20041;-79
2023/01/07 08:26:04;;;;;;;4.47;2.35;;;;;;;9.92;100.00;100694.25;5238915;28;20020;-80
2023/01/07 08:28:35;;;;;;;4.38;2.30;;;;;;;9.96;100.00;100701.97;5237222;28;20031;-79
2023/01/07 08:31:06;;;;;;;2.95;1.90;;;;;;;10.12;100.00;100698.00;5232765;28;20033;-79
2023/01/07 08:33:38;;;;;;;2.50;1.55;;;;;;;10.03;100.00;100689.59;5208829;28;20035;-80
2023/01/07 08:36:09;;;;;;;2.55;1.70;;;;;;;9.65;100.00;100695.13;5232593;28;20025;-80
2023/01/07 08:38:39;;;;;;;2.60;1.50;;;;;;;9.57;100.00;100691.84;5230708;28;20031;-79
2023/01/07 08:41:10;;;;;;;2.35;1.67;;;;;;;9.73;100.00;100688.75;5231809;28;20024;-81
2023/01/07 08:43:43;;;;;;;2.67;1.60;;;;;;;9.89;100.00;100683.91;5216572;28;20659;-79
2023/01/07 08:46:14;;;;;;;3.33;1.88;;;;;;;10.06;100.00;100684.28;5214840;28;20063;-79
2023/01/07 08:48:44;;;;;;;3.38;1.45;;;;;;;10.05;100.00;100682.56;5229242;28;20033;-80
2023/01/07 08:51:14;;;;;;;2.50;1.58;;;;;;;9.96;100.00;100685.47;5228244;28;20016;-79
2023/01/07 08:53:45;;;;;;;4.50;1.40;;;;;;;9.74;100.00;100676.56;5231623;28;20170;-80
2023/01/07 08:56:15;;;;;;;3.00;1.60;;;;;;;9.74;100.00;100684.38;5212215;28;20024;-79
2023/01/07 08:58:45;;;;;;;1.80;1.50;;;;;;;9.57;100.00;100684.03;5229999;28;20066;-79
2023/01/07 09:01:15;;;;;;;3.28;1.75;;;;;;;9.65;100.00;100676.84;5225284;28;20060;-79
2023/01/07 09:03:46;;;;;;;2.50;1.73;;;;;;;9.61;100.00;100688.25;5223204;28;20039;-80
2023/01/07 09:06:16;;;;;;;2.40;1.80;;;;;;;9.53;100.00;100678.06;5217734;28;20021;-83
2023/01/07 09:08:46;;;;;;;3.80;1.80;;;;;;;9.61;100.00;100688.25;5231867;28;20028;-80
2023/01/07 09:11:17;;;;;;;3.88;2.15;;;;;;;9.58;100.00;100680.53;5216193;28;20024;-80
2023/01/07 09:13:47;;;;;;;5.72;1.70;;;;;;;9.76;100.00;100683.44;5237503;28;20553;-79
2023/01/07 09:16:17;;;;;;;2.25;1.63;;;;;;;9.76;100.00;100686.06;5237233;28;20035;-79
2023/01/07 09:18:48;;;;;;;2.70;1.63;;;;;;;9.85;100.00;100677.94;5234154;28;20615;-79
2023/01/07 09:21:19;;;;;;;2.08;1.55;;;;;;;9.85;100.00;100677.09;5228734;28;20075;-79
2023/01/07 09:23:49;;;;;;;3.03;1.65;;;;;;;9.89;100.00;100673.47;5229805;28;20048;-80
2023/01/07 09:26:19;;;;;;;2.25;1.60;;;;;;;10.04;100.00;100678.25;5234447;28;20025;-81
2023/01/07 09:28:50;;;;;;;2.75;1.40;;;;;;;10.03;100.00;100677.38;5220008;28;20032;-80
2023/01/07 09:31:21;;;;;;;2.35;1.60;;;;;;;10.16;100.00;100670.03;5229816;28;20028;-80
2023/01/07 09:33:51;;;;;;;1.90;1.23;;;;;;;10.17;100.00;100674.34;5229439;28;20036;-80
2023/01/07 09:36:21;;;;;;;1.50;1.20;;;;;;;10.34;100.00;100672.88;5219194;28;20639;-80
2023/01/07 09:38:52;;;;;;;1.42;1.20;;;;;;;10.35;100.00;100669.38;5236562;28;20035;-80
2023/01/07 09:41:41;;;;;;;1.85;1.20;;;;;;;10.59;100.00;100672.91;5239141;28;20028;-80
2023/01/07 09:44:52;;;;;;;2.78;1.38;;;;;;;10.86;100.00;100666.75;5235832;28;20025;-80
2023/01/07 09:47:28;;;;;;;2.45;1.13;;;;;;;10.85;100.00;100662.44;5233204;28;20025;-79
2023/01/07 09:50:09;;;;;;;2.22;1.23;;;;;;;10.96;100.00;100655.03;5236814;28;20032;-80
2023/01/07 09:52:49;;;;;;;1.75;1.20;;;;;;;11.07;100.00;100656.38;5230880;28;20105;-80
2023/01/07 09:55:33;;;;;;;1.65;1.10;;;;;;;11.09;100.00;100655.41;5231386;28;20688;-81
2023/01/07 09:58:04;;;;;;;1.98;1.30;;;;;;;11.18;100.00;100657.69;5236119;28;20028;-80
2023/01/07 10:00:38;;;;;;;1.75;1.10;;;;;;;11.18;100.00;100659.44;5229234;28;20029;-80
2023/01/07 10:03:23;;;;;;;2.33;1.27;;;;;;;11.12;100.00;100655.28;5226915;28;20034;-81
2023/01/07 10:06:10;;;;;;;2.28;1.40;;;;;;;11.14;100.00;100663.09;5232198;28;20096;-80
2023/01/07 10:09:03;;;;;;;2.13;1.30;;;;;;;11.07;100.00;100654.59;5238618;28;20036;-80
2023/01/07 10:11:44;;;;;;;3.53;1.40;;;;;;;11.09;100.00;100650.16;5235819;28;20029;-80
2023/01/07 10:14:32;;;;;;;2.75;1.20;;;;;;;11.12;100.00;100650.06;5218276;28;20037;-80
2023/01/07 10:17:48;;;;;;;2.13;1.27;;;;;;;11.23;100.00;100647.91;5208867;28;20033;-79
2023/01/07 10:20:25;;;;;;;2.15;1.10;;;;;;;11.38;100.00;100634.25;5223192;28;20045;-79
2023/01/07 10:23:03;;;;;;;2.53;1.13;;;;;;;11.39;100.00;100630.72;5231275;28;20274;-80
2023/01/07 10:25:39;;;;;;;2.60;1.27;;;;;;;11.43;100.00;100632.31;5231303;28;20033;-79
2023/01/07 10:28:17;;;;;;;2.05;1.20;;;;;;;11.43;100.00;100628.84;5232860;28;20116;-80
2023/01/07 10:30:51;;;;;;;4.22;1.33;;;;;;;11.46;100.00;100629.56;5213928;28;20028;-79
2023/01/07 10:33:32;;;;;;;1.10;1.00;;;;;;;11.41;100.00;100635.91;5214191;28;20119;-79
2023/01/07 10:36:21;;;;;;;1.67;1.05;;;;;;;11.49;100.00;100631.22;5218760;28;20060;-80
2023/01/07 10:38:57;;;;;;;2.35;1.10;;;;;;;11.50;100.00;100620.72;5229667;28;20029;-79
2023/01/07 10:42:04;;;;;;;2.50;1.20;;;;;;;11.57;100.00;100616.09;5232377;28;20041;-79
2023/01/07 10:44:52;;;;;;;1.83;0.90;;;;;;;11.57;100.00;100616.97;5182844;28;20049;-79
2023/01/07 10:47:57;;;;;;;1.75;0.82;;;;;;;11.58;100.00;100607.38;5228875;28;20024;-80
2023/01/07 10:50:45;;;;;;;1.40;0.88;;;;;;;11.51;100.00;100605.84;5230457;28;20025;-79
2023/01/07 10:53:42;;;;;;;2.95;0.90;;;;;;;11.63;100.00;100594.94;5227574;28;20032;-79
2023/01/07 10:56:27;;;;;;;1.13;0.85;;;;;;;11.61;100.00;100584.50;5211910;28;20024;-79
2023/01/07 10:58:57;;;;;;;1.10;0.80;;;;;;;11.61;100.00;100581.91;5228163;28;20083;-80
2023/01/07 11:01:37;;;;;;;1.40;0.80;;;;;;;11.61;100.00;100579.28;5229388;28;20620;-79
2023/01/07 11:04:14;;;;;;;1.05;0.85;;;;;;;11.61;100.00;100576.66;5232361;28;20025;-79
2023/01/07 11:07:05;;;;;;;2.13;0.82;;;;;;;11.61;100.00;100575.81;5230475;28;20146;-79
2023/01/07 11:09:44;;;;;;;1.00;0.68;;;;;;;11.59;100.00;100568.03;5220760;28;20059;-79
2023/01/07 11:12:32;;;;;;;2.13;0.70;;;;;;;11.53;100.00;100567.38;5227606;28;20027;-79
2023/01/07 11:15:13;;;;;;;1.65;0.80;;;;;;;11.62;100.00;100561.81;5230728;28;20036;-79
2023/01/07 11:17:52;;;;;;;0.98;0.63;;;;;;;11.88;100.00;100553.75;5226357;28;20029;-80
2023/01/07 11:20:43;;;;;;;1.55;0.52;;;;;;;11.96;100.00;100551.69;5225557;28;20032;-79
2023/01/07 11:23:31;;;;;;;1.30;0.60;;;;;;;12.11;100.00;100545.81;5222425;28;20032;-80
2023/01/07 11:26:07;;;;;;;0.77;0.40;;;;;;;12.08;100.00;100549.41;5216099;28;20031;-80
2023/01/07 11:28:56;;;;;;;1.30;0.50;;;;;;;12.16;100.00;100533.34;5227537;28;20043;-80
2023/01/07 11:31:45;;;;;;;1.67;0.40;;;;;;;12.23;100.00;100534.78;5233784;28;20400;-79
2023/01/07 11:34:34;;;;;;;0.40;0.40;;;;;;;12.00;100.00;100543.63;5223231;28;20044;-80
2023/01/07 11:37:05;;;;;;;0.70;0.40;;;;;;;11.91;100.00;100537.91;5223721;28;20412;-78
2023/01/07 11:39:35;;;;;;;0.85;0.30;;;;;;;11.89;100.00;100535.38;5234876;28;20059;-79
2023/01/07 11:45:27;;;;;;;1.15;0.30;;;;;;;11.75;100.00;100529.00;5228657;28;20651;-80
2023/01/07 11:48:05;;;;;;;0.40;0.20;;;;;;;11.66;100.00;100527.63;5210449;28;20104;-80
2023/01/07 11:50:42;;;;;;;0.43;0.20;;;;;;;11.62;100.00;100523.38;5212507;28;20044;-78
2023/01/07 11:53:12;;;;;;;0.75;0.50;;;;;;;11.70;100.00;100523.94;5223696;28;20029;-77
2023/01/07 11:56:11;;;;;;;3.17;0.40;;;;;;;11.69;100.00;100517.00;5217073;28;20097;-80
2023/01/07 11:58:47;;;;;;;1.67;0.65;;;;;;;11.70;100.00;100513.47;5225801;28;20036;-80
2023/01/07 12:01:19;;;;;;;0.65;0.30;;;;;;;11.67;100.00;100513.59;5226365;28;20116;-80
2023/01/07 12:03:52;;;;;;;1.10;0.40;;;;;;;11.77;100.00;100509.69;5230048;28;20098;-80